Terminal Aerodrome Forecast
Issued by NWS Bismarck, ND

Home | Current Version | Previous Version | Text Only | Print | Product List | Glossary Off
Versions: 1 2 3 4 5 6 7 8 9 10 11 12 13 14 15 16

000
FTUS43 KBIS 221200 AAA
TAFISN
TAF AMD
KISN 221213Z 2212/2312 00000KT 2SM BR OVC001
      TEMPO 2212/2213 4SM BR SCT005
     FM221300 VRB03KT 5SM BR SCT015
     FM221500 VRB03KT P6SM SCT250
     FM221700 VRB03KT P6SM SCT050
     FM222100 07005KT P6SM SCT200=

USA.gov is the U.S. government's official web portal to all federal, state and local government web resources and services.